createdAt,value
2022-09-21T00:01:45.051Z,7.38
2022-09-21T00:04:13.177Z,6.97
2022-09-21T00:06:42.504Z,7.07
2022-09-21T00:09:10.484Z,6.57
2022-09-21T00:11:41.216Z,7.13
2022-09-21T00:14:12.229Z,6.90
2022-09-21T00:16:41.773Z,6.68
2022-09-21T00:19:09.905Z,6.82
2022-09-21T00:21:39.254Z,6.68
2022-09-21T00:24:08.958Z,7.05
2022-09-21T00:26:37.032Z,6.95
2022-09-21T00:29:05.972Z,6.90
2022-09-21T00:31:34.861Z,6.80
2022-09-21T00:34:03.790Z,7.68
2022-09-21T00:36:31.895Z,7.82
2022-09-21T00:39:03.113Z,7.20
2022-09-21T00:41:34.339Z,7.60
2022-09-21T00:44:24.689Z,7.50
2022-09-21T00:46:55.953Z,7.57
2022-09-21T00:49:25.152Z,7.70
2022-09-21T00:51:53.730Z,7.65
2022-09-21T00:54:26.874Z,8.02
2022-09-21T00:57:01.330Z,8.27
2022-09-21T00:59:30.591Z,8.23
2022-09-21T01:01:59.536Z,8.73
2022-09-21T01:04:31.791Z,9.43
2022-09-21T01:07:04.116Z,10.00
2022-09-21T01:09:32.751Z,11.50
2022-09-21T01:12:12.767Z,11.63
2022-09-21T01:14:55.649Z,12.20
2022-09-21T01:17:32.983Z,11.63
2022-09-21T01:20:30.020Z,12.70
2022-09-21T01:23:17.819Z,13.13
2022-09-21T01:26:00.171Z,13.57
2022-09-21T01:28:39.248Z,13.75
2022-09-21T01:31:15.159Z,13.35
2022-09-21T01:33:47.449Z,13.13
2022-09-21T01:36:20.123Z,12.43
2022-09-21T01:38:51.499Z,13.30
2022-09-21T01:41:24.160Z,14.02
2022-09-21T01:43:55.839Z,13.00
2022-09-21T01:46:30.697Z,13.85
2022-09-21T01:49:04.828Z,13.48
2022-09-21T01:51:34.988Z,13.73
2022-09-21T01:54:06.909Z,14.65
2022-09-21T01:56:40.519Z,14.88
2022-09-21T01:59:13.872Z,13.63
2022-09-21T02:01:47.803Z,13.73
2022-09-21T02:04:16.023Z,13.63
2022-09-21T02:06:47.747Z,14.05
2022-09-21T02:09:16.114Z,13.48
2022-09-21T02:11:44.999Z,13.63
2022-09-21T02:14:16.479Z,13.75
2022-09-21T02:16:56.409Z,13.00
2022-09-21T02:19:35.925Z,13.30
2022-09-21T02:22:07.763Z,13.18
2022-09-21T02:24:41.487Z,13.35
2022-09-21T02:27:17.678Z,13.32
2022-09-21T02:29:50.866Z,12.68
2022-09-21T02:32:28.149Z,13.15
2022-09-21T02:35:04.508Z,12.65
2022-09-21T02:37:39.196Z,13.57
2022-09-21T02:40:16.617Z,13.40
2022-09-21T02:42:47.393Z,13.73
2022-09-21T02:45:20.330Z,13.55
2022-09-21T02:47:59.075Z,13.30
2022-09-21T02:50:33.061Z,13.38
2022-09-21T02:53:02.757Z,13.70
2022-09-21T02:55:32.565Z,13.68
2022-09-21T02:58:05.683Z,14.73
2022-09-21T03:00:36.415Z,13.63
2022-09-21T03:03:18.286Z,13.50
2022-09-21T03:05:48.852Z,13.48
2022-09-21T03:08:17.179Z,14.00
2022-09-21T03:10:46.868Z,14.13
2022-09-21T03:13:15.135Z,14.00
2022-09-21T03:15:45.729Z,14.23
2022-09-21T03:18:15.080Z,14.27
2022-09-21T03:20:47.020Z,15.38
2022-09-21T03:23:15.372Z,13.68
2022-09-21T03:25:45.914Z,14.07
2022-09-21T03:28:17.525Z,14.10
2022-09-21T03:30:46.008Z,13.95
2022-09-21T03:33:14.077Z,13.85
2022-09-21T03:35:42.668Z,15.45
2022-09-21T03:38:15.110Z,14.55
2022-09-21T03:40:46.227Z,14.45
2022-09-21T03:43:14.513Z,15.35
2022-09-21T03:45:42.858Z,15.43
2022-09-21T03:48:12.687Z,14.45
2022-09-21T03:50:40.870Z,14.43
2022-09-21T03:53:10.152Z,15.50
2022-09-21T03:55:39.730Z,14.57
2022-09-21T03:58:09.057Z,13.68
2022-09-21T04:00:38.189Z,14.70
2022-09-21T04:03:06.399Z,14.35
2022-09-21T04:05:34.323Z,14.45
2022-09-21T04:08:03.078Z,14.13
2022-09-21T04:10:33.762Z,14.20
2022-09-21T04:13:06.597Z,15.20
2022-09-21T04:15:34.803Z,13.57
2022-09-21T04:18:02.833Z,13.30
2022-09-21T04:20:30.788Z,12.23
2022-09-21T04:23:01.804Z,12.85
2022-09-21T04:25:29.811Z,12.57
2022-09-21T04:27:57.742Z,12.60
2022-09-21T04:30:27.162Z,12.98
2022-09-21T04:32:55.122Z,12.65
2022-09-21T04:35:23.143Z,11.82
2022-09-21T04:37:51.169Z,11.93
2022-09-21T04:40:19.172Z,11.68
2022-09-21T04:42:52.634Z,11.50
2022-09-21T04:45:20.888Z,11.77
2022-09-21T04:47:50.316Z,11.75
2022-09-21T04:50:19.532Z,11.55
2022-09-21T04:52:47.940Z,11.70
2022-09-21T04:55:17.868Z,10.93
2022-09-21T04:57:49.240Z,11.25
2022-09-21T05:00:17.722Z,11.00
2022-09-21T05:02:45.740Z,10.27
2022-09-21T05:05:15.492Z,10.20
2022-09-21T05:07:43.436Z,10.05
2022-09-21T05:10:11.633Z,9.10
2022-09-21T05:12:41.223Z,9.25
2022-09-21T05:15:10.501Z,9.85
2022-09-21T05:17:38.622Z,10.05
2022-09-21T05:20:07.512Z,10.25
2022-09-21T05:22:39.848Z,10.13
2022-09-21T05:25:09.376Z,9.55
2022-09-21T05:27:37.308Z,9.45
2022-09-21T05:30:06.442Z,9.05
2022-09-21T05:32:45.224Z,8.85
2022-09-21T05:35:23.750Z,9.15
2022-09-21T05:38:00.275Z,8.82
2022-09-21T05:40:29.193Z,8.85
2022-09-21T05:42:57.712Z,9.32
2022-09-21T05:45:28.843Z,15.20
2022-09-21T05:48:10.492Z,9.32
2022-09-21T05:50:47.512Z,8.23
2022-09-21T05:53:32.694Z,10.75
2022-09-21T05:56:03.146Z,8.68
2022-09-21T05:58:38.225Z,11.77
2022-09-21T06:01:21.083Z,8.10
2022-09-21T06:03:50.293Z,8.93
2022-09-21T06:06:18.817Z,7.97
2022-09-21T06:08:48.550Z,6.70
2022-09-21T06:11:25.437Z,7.50
2022-09-21T06:13:53.504Z,7.28
2022-09-21T06:16:21.552Z,7.25
2022-09-21T06:18:49.657Z,6.60
2022-09-21T06:21:17.612Z,7.18
2022-09-21T06:23:45.673Z,7.20
2022-09-21T06:26:15.100Z,7.13
2022-09-21T06:28:43.263Z,6.97
2022-09-21T06:31:11.258Z,6.38
2022-09-21T06:33:39.346Z,6.60
2022-09-21T06:36:11.059Z,6.72
2022-09-21T06:38:39.380Z,6.82
2022-09-21T06:41:07.333Z,6.13
2022-09-21T06:43:36.827Z,5.97
2022-09-21T06:46:05.499Z,5.60
2022-09-21T06:48:35.416Z,5.13
2022-09-21T06:51:05.236Z,4.82
2022-09-21T06:53:34.895Z,4.20
2022-09-21T06:56:04.080Z,4.07
2022-09-21T06:58:34.320Z,4.60
2022-09-21T07:01:08.518Z,3.63
2022-09-21T07:03:37.216Z,3.50
2022-09-21T07:06:05.847Z,3.90
2022-09-21T07:11:24.256Z,3.80
2022-09-21T07:13:52.960Z,3.80
2022-09-21T07:16:25.489Z,3.40
2022-09-21T07:18:53.588Z,3.47
2022-09-21T07:21:21.878Z,3.63
2022-09-21T07:23:49.965Z,3.78
2022-09-21T07:26:18.021Z,3.78
2022-09-21T07:28:49.123Z,3.72
2022-09-21T07:31:18.009Z,3.58
2022-09-21T07:33:47.588Z,3.60
2022-09-21T07:36:17.795Z,3.60
2022-09-21T07:38:45.993Z,3.78
2022-09-21T07:41:16.894Z,3.30
2022-09-21T07:43:44.849Z,3.30
2022-09-21T07:46:14.629Z,3.47
2022-09-21T07:48:43.209Z,3.40
2022-09-21T07:51:14.162Z,2.88
2022-09-21T07:53:44.607Z,3.22
2022-09-21T07:56:15.270Z,3.60
2022-09-21T07:58:58.118Z,3.78
2022-09-21T08:01:27.738Z,3.85
2022-09-21T08:03:57.821Z,4.85
2022-09-21T08:06:30.491Z,4.20
2022-09-21T08:08:58.540Z,3.45
2022-09-21T08:11:28.397Z,3.83
2022-09-21T08:13:59.284Z,3.30
2022-09-21T08:16:29.134Z,2.72
2022-09-21T08:18:57.716Z,3.42
2022-09-21T08:21:27.281Z,2.80
2022-09-21T08:23:55.249Z,3.15
2022-09-21T08:26:24.724Z,2.10
2022-09-21T08:28:57.168Z,1.80
2022-09-21T08:31:27.831Z,1.55
2022-09-21T08:33:57.602Z,2.10
2022-09-21T08:36:27.413Z,1.65
2022-09-21T08:38:56.931Z,1.63
2022-09-21T08:41:34.807Z,1.83
2022-09-21T08:44:11.874Z,2.03
2022-09-21T08:46:41.646Z,2.10
2022-09-21T08:49:14.429Z,2.50
2022-09-21T08:51:52.625Z,2.95
2022-09-21T08:54:26.422Z,3.08
2022-09-21T08:57:04.919Z,2.85
2022-09-21T08:59:33.350Z,3.40
2022-09-21T09:02:22.732Z,2.47
2022-09-21T09:04:58.627Z,2.10
2022-09-21T09:07:52.398Z,2.28
2022-09-21T09:10:36.379Z,2.10
2022-09-21T09:13:17.895Z,1.92
2022-09-21T09:16:03.575Z,2.20
2022-09-21T09:18:43.593Z,2.22
2022-09-21T09:21:25.942Z,2.03
2022-09-21T09:24:03.453Z,2.00
2022-09-21T09:26:37.312Z,1.50
2022-09-21T09:29:13.155Z,1.67
2022-09-21T09:31:42.750Z,1.58
2022-09-21T09:34:15.657Z,1.80
2022-09-21T09:36:58.370Z,1.92
2022-09-21T09:39:30.907Z,1.70
2022-09-21T09:42:22.101Z,1.88
2022-09-21T09:45:15.018Z,1.83
2022-09-21T09:47:55.093Z,2.10
2022-09-21T09:50:28.548Z,1.63
2022-09-21T09:53:01.988Z,1.63
2022-09-21T09:55:37.974Z,1.70
2022-09-21T09:58:08.926Z,1.70
2022-09-21T10:00:37.004Z,1.90
2022-09-21T10:03:18.086Z,1.80
2022-09-21T10:05:46.841Z,1.48
2022-09-21T10:08:42.041Z,1.90
2022-09-21T10:11:13.359Z,1.50
2022-09-21T10:13:44.255Z,1.80
2022-09-21T10:16:15.402Z,1.65
2022-09-21T10:18:49.141Z,1.50
2022-09-21T10:21:22.762Z,1.67
2022-09-21T10:23:52.913Z,1.77
2022-09-21T10:26:23.033Z,1.60
2022-09-21T10:28:59.832Z,1.65
2022-09-21T10:31:30.217Z,1.98
2022-09-21T10:34:13.081Z,1.40
2022-09-21T10:36:41.519Z,1.63
2022-09-21T10:39:28.566Z,1.50
2022-09-21T10:42:02.826Z,1.50
2022-09-21T10:44:40.351Z,1.30
2022-09-21T10:47:20.972Z,1.35
2022-09-21T10:49:51.447Z,1.60
2022-09-21T10:52:21.778Z,1.73
2022-09-21T10:54:53.054Z,1.80
2022-09-21T10:57:25.800Z,1.50
2022-09-21T10:59:53.879Z,1.58
2022-09-21T11:02:36.135Z,1.70
2022-09-21T11:05:13.007Z,1.77
2022-09-21T11:07:48.459Z,1.83
2022-09-21T11:10:22.214Z,1.67
2022-09-21T11:13:17.825Z,1.65
2022-09-21T11:16:00.423Z,1.80
2022-09-21T11:18:41.630Z,1.80
2022-09-21T11:21:18.115Z,1.67
2022-09-21T11:23:56.299Z,1.70
2022-09-21T11:26:28.500Z,2.00
2022-09-21T11:29:03.161Z,2.05
2022-09-21T11:31:52.672Z,2.10
2022-09-21T11:34:41.606Z,2.08
2022-09-21T11:37:22.501Z,2.25
2022-09-21T11:40:06.088Z,2.20
2022-09-21T11:42:50.048Z,2.50
2022-09-21T11:45:34.997Z,2.38
2022-09-21T11:48:17.980Z,2.08
2022-09-21T11:50:57.558Z,2.25
2022-09-21T11:53:38.378Z,2.15
2022-09-21T11:56:18.899Z,1.60
2022-09-21T11:58:57.806Z,1.95
2022-09-21T12:01:45.448Z,1.20
2022-09-21T12:04:34.223Z,1.20
2022-09-21T12:07:16.635Z,0.90
2022-09-21T12:09:58.870Z,0.95
2022-09-21T12:12:33.437Z,1.10
2022-09-21T12:15:06.300Z,1.08
2022-09-21T12:17:46.382Z,0.98
2022-09-21T12:20:24.637Z,1.02
2022-09-21T12:22:56.866Z,1.10
2022-09-21T12:25:28.729Z,1.10
2022-09-21T12:28:04.124Z,0.90
2022-09-21T12:30:34.573Z,1.00
2022-09-21T12:33:11.231Z,0.90
2022-09-21T12:35:43.983Z,1.08
2022-09-21T12:38:17.656Z,0.90
2022-09-21T12:40:51.755Z,0.82
2022-09-21T12:43:33.751Z,0.63
2022-09-21T12:46:05.454Z,0.75
2022-09-21T12:48:38.956Z,0.80
2022-09-21T12:51:15.592Z,0.90
2022-09-21T12:53:50.800Z,0.70
2022-09-21T12:56:31.202Z,0.70
2022-09-21T12:59:22.658Z,0.70
2022-09-21T13:01:57.556Z,0.80
2022-09-21T13:04:46.528Z,0.77
2022-09-21T13:07:39.878Z,0.70
2022-09-21T13:10:19.835Z,1.00
2022-09-21T13:12:53.166Z,0.80
2022-09-21T13:15:28.985Z,0.90
2022-09-21T13:18:03.073Z,1.23
2022-09-21T13:20:38.254Z,0.80
2022-09-21T13:23:06.771Z,0.90
2022-09-21T13:25:37.740Z,0.73
2022-09-21T13:28:19.773Z,0.82
2022-09-21T13:30:49.283Z,1.05
2022-09-21T13:33:39.769Z,0.70
2022-09-21T13:36:32.049Z,0.90
2022-09-21T13:39:21.020Z,1.13
2022-09-21T13:42:02.816Z,0.70
2022-09-21T13:44:44.158Z,0.77
2022-09-21T13:47:15.125Z,0.82
2022-09-21T13:49:56.021Z,1.00
2022-09-21T13:52:40.242Z,0.75
2022-09-21T13:55:24.553Z,0.90
2022-09-21T13:57:55.773Z,0.88
2022-09-21T14:00:34.593Z,0.80
2022-09-21T14:03:06.646Z,1.08
2022-09-21T14:05:40.417Z,0.80
2022-09-21T14:08:25.450Z,0.80
2022-09-21T14:10:57.761Z,1.00
2022-09-21T14:13:34.067Z,1.23
2022-09-21T14:16:27.903Z,1.30
2022-09-21T14:18:56.237Z,1.30
2022-09-21T14:21:24.298Z,1.40
2022-09-21T14:24:36.275Z,1.60
2022-09-21T14:27:14.294Z,1.40
2022-09-21T14:29:46.697Z,1.60
2022-09-21T14:32:23.420Z,1.30
2022-09-21T14:34:55.642Z,1.52
2022-09-21T14:37:32.309Z,1.50
2022-09-21T14:40:05.934Z,1.60
2022-09-21T14:42:34.269Z,1.60
2022-09-21T14:45:04.070Z,1.40
2022-09-21T14:47:52.095Z,1.60
2022-09-21T14:50:31.567Z,1.15
2022-09-21T14:53:29.440Z,1.33
2022-09-21T14:56:30.159Z,1.77
2022-09-21T14:59:16.712Z,1.40
2022-09-21T15:01:58.220Z,1.40
2022-09-21T15:04:45.727Z,1.42
2022-09-21T15:07:58.871Z,1.40
2022-09-21T15:10:49.686Z,1.20
2022-09-21T15:13:37.462Z,1.30
2022-09-21T15:16:22.689Z,1.50
2022-09-21T15:18:52.382Z,1.20
2022-09-21T15:21:24.267Z,1.08
2022-09-21T15:23:53.037Z,0.98
2022-09-21T15:26:26.823Z,1.25
2022-09-21T15:29:09.412Z,1.20
2022-09-21T15:31:40.373Z,1.20
2022-09-21T15:34:09.521Z,1.30
2022-09-21T15:36:43.061Z,1.20
2022-09-21T15:39:23.769Z,1.20
2022-09-21T15:42:12.553Z,1.50
2022-09-21T15:44:44.587Z,1.40
2022-09-21T15:47:14.187Z,1.33
2022-09-21T15:49:42.945Z,1.48
2022-09-21T15:52:14.877Z,1.20
2022-09-21T15:54:46.152Z,1.50
2022-09-21T15:57:39.012Z,1.38
2022-09-21T16:00:24.752Z,1.30
2022-09-21T16:03:08.322Z,1.20
2022-09-21T16:05:48.455Z,1.20
2022-09-21T16:08:28.633Z,1.13
2022-09-21T16:11:18.921Z,1.20
2022-09-21T16:14:06.254Z,1.10
2022-09-21T16:17:24.767Z,1.27
2022-09-21T16:20:15.692Z,1.20
2022-09-21T16:22:47.539Z,1.60
2022-09-21T16:25:29.983Z,1.25
2022-09-21T16:28:00.764Z,1.42
2022-09-21T16:30:51.179Z,1.27
2022-09-21T16:33:41.638Z,1.50
2022-09-21T16:36:45.134Z,1.40
2022-09-21T16:39:15.829Z,1.30
2022-09-21T16:41:53.900Z,1.40
2022-09-21T16:44:25.780Z,1.20
2022-09-21T16:46:57.682Z,1.27
2022-09-21T16:49:30.586Z,1.08
2022-09-21T16:51:59.837Z,1.40
2022-09-21T16:54:28.542Z,1.10
2022-09-21T16:56:59.466Z,0.93
2022-09-21T16:59:27.876Z,1.00
2022-09-21T17:01:57.964Z,1.00
2022-09-21T17:04:29.514Z,1.15
2022-09-21T17:06:58.384Z,1.00
2022-09-21T17:09:29.885Z,1.05
2022-09-21T17:12:00.276Z,1.27
2022-09-21T17:14:32.431Z,0.98
2022-09-21T17:17:00.891Z,1.00
2022-09-21T17:19:30.251Z,1.05
2022-09-21T17:21:59.634Z,1.30
2022-09-21T17:24:49.226Z,1.40
2022-09-21T17:27:17.751Z,1.20
2022-09-21T17:29:48.311Z,1.10
2022-09-21T17:32:17.924Z,1.20
2022-09-21T17:34:50.290Z,1.10
2022-09-21T17:37:18.306Z,0.98
2022-09-21T17:39:46.632Z,1.13
2022-09-21T17:42:18.990Z,1.20
2022-09-21T17:45:12.473Z,1.48
2022-09-21T17:47:41.738Z,1.40
2022-09-21T17:50:23.102Z,1.42
2022-09-21T17:53:09.648Z,1.38
2022-09-21T17:55:39.589Z,1.77
2022-09-21T17:58:25.498Z,1.55
2022-09-21T18:01:01.659Z,1.90
2022-09-21T18:03:32.005Z,1.90
2022-09-21T18:06:05.788Z,1.80
2022-09-21T18:08:36.133Z,1.70
2022-09-21T18:11:47.405Z,1.88
2022-09-21T18:14:24.564Z,1.83
2022-09-21T18:17:02.591Z,1.88
2022-09-21T18:19:42.762Z,1.60
2022-09-21T18:22:18.217Z,1.80
2022-09-21T18:24:46.942Z,2.08
2022-09-21T18:27:18.690Z,2.00
2022-09-21T18:29:53.451Z,2.00
2022-09-21T18:32:35.116Z,2.08
2022-09-21T18:35:19.987Z,2.10
2022-09-21T18:38:00.427Z,2.22
2022-09-21T18:40:37.606Z,2.15
2022-09-21T18:43:18.798Z,2.20
2022-09-21T18:45:52.976Z,2.38
2022-09-21T18:48:36.203Z,2.42
2022-09-21T18:51:11.184Z,2.42
2022-09-21T18:53:46.803Z,2.50
2022-09-21T18:56:15.637Z,2.70
2022-09-21T18:58:44.030Z,3.25
2022-09-21T19:01:13.689Z,3.10
2022-09-21T19:03:43.503Z,3.10
2022-09-21T19:06:25.439Z,3.13
2022-09-21T19:09:03.683Z,3.10
2022-09-21T19:11:38.281Z,3.40
2022-09-21T19:14:15.403Z,3.60
2022-09-21T19:16:53.951Z,3.40
2022-09-21T19:19:30.965Z,3.25
2022-09-21T19:22:03.413Z,3.38
2022-09-21T19:24:40.882Z,3.22
2022-09-21T19:27:19.039Z,3.50
2022-09-21T19:29:57.157Z,3.35
2022-09-21T19:32:35.494Z,3.67
2022-09-21T19:35:17.568Z,4.20
2022-09-21T19:37:47.176Z,3.50
2022-09-21T19:40:18.534Z,3.78
2022-09-21T19:43:03.305Z,3.70
2022-09-21T19:45:39.724Z,3.58
2022-09-21T19:48:13.106Z,3.55
2022-09-21T19:50:46.815Z,3.75
2022-09-21T19:53:32.730Z,3.70
2022-09-21T19:56:21.028Z,3.50
2022-09-21T19:59:06.877Z,3.90
2022-09-21T20:01:39.045Z,3.72
2022-09-21T20:04:08.046Z,4.03
2022-09-21T20:06:43.631Z,3.88
2022-09-21T20:09:18.051Z,3.83
2022-09-21T20:11:52.162Z,4.50
2022-09-21T20:14:30.207Z,4.32
2022-09-21T20:17:00.852Z,4.05
2022-09-21T20:19:40.867Z,4.22
2022-09-21T20:22:14.672Z,4.97
2022-09-21T20:24:51.788Z,4.43
2022-09-21T20:27:30.629Z,4.95
2022-09-21T20:29:58.760Z,4.60
2022-09-21T20:32:26.793Z,5.13
2022-09-21T20:34:54.905Z,4.97
2022-09-21T20:37:23.688Z,4.75
2022-09-21T20:39:51.802Z,5.20
2022-09-21T20:42:26.988Z,5.25
2022-09-21T20:44:55.269Z,5.05
2022-09-21T20:47:23.748Z,5.47
2022-09-21T20:49:52.514Z,5.68
2022-09-21T20:52:20.767Z,5.32
2022-09-21T20:54:49.652Z,5.57
2022-09-21T20:57:18.248Z,5.65
2022-09-21T20:59:47.925Z,5.65
2022-09-21T21:02:17.286Z,5.85
2022-09-21T21:04:45.392Z,5.63
2022-09-21T21:07:13.409Z,5.90
2022-09-21T21:09:41.398Z,5.60
2022-09-21T21:12:10.264Z,5.30
2022-09-21T21:14:38.338Z,4.68
2022-09-21T21:17:11.565Z,4.65
2022-09-21T21:19:39.660Z,4.22
2022-09-21T21:22:07.592Z,4.55
2022-09-21T21:24:41.932Z,4.10
2022-09-21T21:27:15.138Z,4.60
2022-09-21T21:29:43.799Z,4.50
2022-09-21T21:32:14.028Z,4.45
2022-09-21T21:34:42.195Z,4.35
2022-09-21T21:37:10.694Z,3.80
2022-09-21T21:39:38.827Z,3.90
2022-09-21T21:42:07.359Z,3.90
2022-09-21T21:44:35.600Z,4.40
2022-09-21T21:47:27.784Z,4.47
2022-09-21T21:49:56.463Z,4.35
2022-09-21T21:52:24.425Z,4.53
2022-09-21T21:54:52.482Z,4.55
2022-09-21T21:57:20.479Z,4.72
2022-09-21T21:59:48.518Z,4.53
2022-09-21T22:02:16.511Z,4.72
2022-09-21T22:04:44.619Z,5.20
2022-09-21T22:07:13.895Z,5.07
2022-09-21T22:09:44.777Z,4.30
2022-09-21T22:12:12.773Z,4.72
2022-09-21T22:14:40.819Z,4.35
2022-09-21T22:17:10.299Z,4.60
2022-09-21T22:19:38.477Z,4.18
2022-09-21T22:22:06.415Z,4.53
2022-09-21T22:24:35.798Z,5.28
2022-09-21T22:27:03.869Z,4.45
2022-09-21T22:29:31.918Z,4.55
2022-09-21T22:32:00.578Z,4.80
2022-09-21T22:34:31.763Z,4.43
2022-09-21T22:37:00.658Z,4.80
2022-09-21T22:39:32.322Z,5.15
2022-09-21T22:42:01.645Z,5.13
2022-09-21T22:44:29.582Z,4.70
2022-09-21T22:46:57.749Z,5.20
2022-09-21T22:49:25.713Z,4.95
2022-09-21T22:51:53.802Z,5.00
2022-09-21T22:54:21.793Z,4.93
2022-09-21T22:56:52.609Z,4.93
2022-09-21T22:59:21.997Z,5.00
2022-09-21T23:01:50.002Z,4.90
2022-09-21T23:04:18.206Z,4.82
2022-09-21T23:06:46.419Z,4.50
2022-09-21T23:09:16.861Z,4.38
2022-09-21T23:11:48.045Z,4.80
2022-09-21T23:14:17.204Z,4.90
2022-09-21T23:16:46.801Z,4.97
2022-09-21T23:19:16.409Z,4.95
2022-09-21T23:21:50.475Z,4.53
2022-09-21T23:24:19.345Z,5.00
2022-09-21T23:26:47.959Z,5.07
2022-09-21T23:29:16.853Z,5.28
2022-09-21T23:31:46.617Z,5.05
2022-09-21T23:34:15.659Z,6.53
2022-09-21T23:36:44.960Z,6.03
2022-09-21T23:39:14.093Z,6.30
2022-09-21T23:41:42.295Z,5.45
2022-09-21T23:44:10.595Z,5.80
2022-09-21T23:46:40.177Z,6.50
2022-09-21T23:49:10.917Z,5.70
2022-09-21T23:51:39.536Z,5.68
2022-09-21T23:54:08.521Z,5.05
2022-09-21T23:56:36.733Z,5.63
2022-09-21T23:59:05.558Z,5.90
